sensor_id;sensor_type;location;lat;lon;timestamp;pressure;altitude;pressure_sealevel;temperature;humidity
11487;BME280;10510;47.942;9.442;2022-08-16T00:01:56;94125.38;;;14.09;100.00
11487;BME280;10510;47.942;9.442;2022-08-16T00:03:56;94120.50;;;14.13;100.00
11487;BME280;10510;47.942;9.442;2022-08-16T00:05:59;94140.28;;;14.16;100.00
11487;BME280;10510;47.942;9.442;2022-08-16T00:07:59;94124.72;;;14.14;100.00
11487;BME280;10510;47.942;9.442;2022-08-16T00:09:59;94131.44;;;14.10;100.00
11487;BME280;10510;47.942;9.442;2022-08-16T00:12:00;94128.22;;;14.08;100.00
11487;BME280;10510;47.942;9.442;2022-08-16T00:14:01;94125.38;;;14.09;100.00
11487;BME280;10510;47.942;9.442;2022-08-16T00:16:02;94128.81;;;14.10;100.00
11487;BME280;10510;47.942;9.442;2022-08-16T00:18:03;94133.84;;;14.12;100.00
11487;BME280;10510;47.942;9.442;2022-08-16T00:20:05;94134.22;;;14.15;100.00
11487;BME280;10510;47.942;9.442;2022-08-16T00:22:10;94137.06;;;14.14;100.00
11487;BME280;10510;47.942;9.442;2022-08-16T00:24:11;94141.28;;;14.15;100.00
11487;BME280;10510;47.942;9.442;2022-08-16T00:26:12;94142.69;;;14.17;100.00
11487;BME280;10510;47.942;9.442;2022-08-16T00:28:12;94143.50;;;14.18;100.00
11487;BME280;10510;47.942;9.442;2022-08-16T00:30:14;94139.63;;;14.20;100.00
11487;BME280;10510;47.942;9.442;2022-08-16T00:32:15;94135.75;;;14.23;100.00
11487;BME280;10510;47.942;9.442;2022-08-16T00:34:17;94133.28;;;14.28;100.00
11487;BME280;10510;47.942;9.442;2022-08-16T00:36:17;94131.03;;;14.31;100.00
11487;BME280;10510;47.942;9.442;2022-08-16T00:38:18;94130.81;;;14.33;100.00
11487;BME280;10510;47.942;9.442;2022-08-16T00:40:43;94137.31;;;14.30;100.00
11487;BME280;10510;47.942;9.442;2022-08-16T00:42:43;94141.38;;;14.26;100.00
11487;BME280;10510;47.942;9.442;2022-08-16T00:44:53;94144.06;;;14.20;100.00
11487;BME280;10510;47.942;9.442;2022-08-16T00:46:58;94155.03;;;14.17;100.00
11487;BME280;10510;47.942;9.442;2022-08-16T00:49:03;94146.78;;;14.13;100.00
11487;BME280;10510;47.942;9.442;2022-08-16T00:51:05;94145.97;;;14.13;100.00
11487;BME280;10510;47.942;9.442;2022-08-16T00:53:08;94141.88;;;14.17;100.00
11487;BME280;10510;47.942;9.442;2022-08-16T00:55:09;94141.72;;;14.12;100.00
11487;BME280;10510;47.942;9.442;2022-08-16T00:57:09;94136.97;;;14.02;100.00
11487;BME280;10510;47.942;9.442;2022-08-16T00:59:12;94134.41;;;13.95;100.00
11487;BME280;10510;47.942;9.442;2022-08-16T01:01:15;94142.94;;;13.91;100.00
11487;BME280;10510;47.942;9.442;2022-08-16T01:03:18;94133.88;;;13.86;100.00
11487;BME280;10510;47.942;9.442;2022-08-16T01:05:18;94137.97;;;13.82;100.00
11487;BME280;10510;47.942;9.442;2022-08-16T01:07:19;94140.34;;;13.84;100.00
11487;BME280;10510;47.942;9.442;2022-08-16T01:09:20;94140.34;;;13.84;100.00
11487;BME280;10510;47.942;9.442;2022-08-16T01:11:22;94138.34;;;13.86;100.00
11487;BME280;10510;47.942;9.442;2022-08-16T01:13:27;94144.16;;;13.88;100.00
11487;BME280;10510;47.942;9.442;2022-08-16T01:15:29;94145.53;;;13.91;100.00
11487;BME280;10510;47.942;9.442;2022-08-16T01:17:30;94141.69;;;13.93;100.00
11487;BME280;10510;47.942;9.442;2022-08-16T01:19:35;94143.44;;;13.99;100.00
11487;BME280;10510;47.942;9.442;2022-08-16T01:21:52;94147.28;;;14.03;100.00
11487;BME280;10510;47.942;9.442;2022-08-16T01:24:02;94150.47;;;14.05;100.00
11487;BME280;10510;47.942;9.442;2022-08-16T01:26:06;94149.06;;;14.03;100.00
11487;BME280;10510;47.942;9.442;2022-08-16T01:28:10;94144.06;;;14.01;100.00
11487;BME280;10510;47.942;9.442;2022-08-16T01:30:15;94140.81;;;13.99;100.00
11487;BME280;10510;47.942;9.442;2022-08-16T01:32:16;94142.50;;;13.94;100.00
11487;BME280;10510;47.942;9.442;2022-08-16T01:34:17;94143.16;;;13.89;100.00
11487;BME280;10510;47.942;9.442;2022-08-16T01:36:19;94141.97;;;13.85;100.00
11487;BME280;10510;47.942;9.442;2022-08-16T01:38:27;94139.56;;;13.83;100.00
11487;BME280;10510;47.942;9.442;2022-08-16T01:40:29;94137.00;;;13.77;100.00
11487;BME280;10510;47.942;9.442;2022-08-16T01:42:29;94145.31;;;13.74;100.00
11487;BME280;10510;47.942;9.442;2022-08-16T01:44:30;94133.41;;;13.71;100.00
11487;BME280;10510;47.942;9.442;2022-08-16T01:46:38;94136.06;;;13.64;100.00
11487;BME280;10510;47.942;9.442;2022-08-16T01:48:39;94137.75;;;13.59;100.00
11487;BME280;10510;47.942;9.442;2022-08-16T01:50:41;94130.28;;;13.56;100.00
11487;BME280;10510;47.942;9.442;2022-08-16T01:52:43;94130.66;;;13.59;100.00
11487;BME280;10510;47.942;9.442;2022-08-16T01:54:44;94131.41;;;13.67;100.00
11487;BME280;10510;47.942;9.442;2022-08-16T01:56:44;94132.00;;;13.69;100.00
11487;BME280;10510;47.942;9.442;2022-08-16T01:58:45;94130.97;;;13.70;100.00
11487;BME280;10510;47.942;9.442;2022-08-16T02:00:45;94138.50;;;13.66;100.00
11487;BME280;10510;47.942;9.442;2022-08-16T02:02:45;94129.47;;;13.55;100.00
11487;BME280;10510;47.942;9.442;2022-08-16T02:04:46;94129.16;;;13.45;100.00
11487;BME280;10510;47.942;9.442;2022-08-16T02:06:46;94126.78;;;13.37;100.00
11487;BME280;10510;47.942;9.442;2022-08-16T02:08:47;94124.78;;;13.32;100.00
11487;BME280;10510;47.942;9.442;2022-08-16T02:10:47;94128.44;;;13.31;100.00
11487;BME280;10510;47.942;9.442;2022-08-16T02:12:47;94123.97;;;13.32;100.00
11487;BME280;10510;47.942;9.442;2022-08-16T02:14:47;94121.97;;;13.34;100.00
11487;BME280;10510;47.942;9.442;2022-08-16T02:16:48;94121.97;;;13.34;100.00
11487;BME280;10510;47.942;9.442;2022-08-16T02:18:50;94117.31;;;13.36;100.00
11487;BME280;10510;47.942;9.442;2022-08-16T02:20:51;94121.53;;;13.37;100.00
11487;BME280;10510;47.942;9.442;2022-08-16T02:22:53;94115.66;;;13.42;100.00
11487;BME280;10510;47.942;9.442;2022-08-16T02:24:53;94119.09;;;13.42;100.00
11487;BME280;10510;47.942;9.442;2022-08-16T02:26:53;94115.84;;;13.40;100.00
11487;BME280;10510;47.942;9.442;2022-08-16T02:28:55;94115.50;;;13.36;100.00
11487;BME280;10510;47.942;9.442;2022-08-16T02:30:58;94111.88;;;13.31;100.00
11487;BME280;10510;47.942;9.442;2022-08-16T02:32:58;94109.09;;;13.26;100.00
11487;BME280;10510;47.942;9.442;2022-08-16T02:34:58;94112.09;;;13.23;100.00
11487;BME280;10510;47.942;9.442;2022-08-16T02:36:59;94116.56;;;13.22;100.00
11487;BME280;10510;47.942;9.442;2022-08-16T02:39:00;94112.34;;;13.14;100.00
11487;BME280;10510;47.942;9.442;2022-08-16T02:41:01;94115.41;;;13.11;100.00
11487;BME280;10510;47.942;9.442;2022-08-16T02:43:02;94110.75;;;13.13;100.00
11487;BME280;10510;47.942;9.442;2022-08-16T02:45:03;94107.75;;;13.10;100.00
11487;BME280;10510;47.942;9.442;2022-08-16T02:47:04;94109.19;;;13.06;100.00
11487;BME280;10510;47.942;9.442;2022-08-16T02:49:05;94112.41;;;13.08;100.00
11487;BME280;10510;47.942;9.442;2022-08-16T02:51:07;94104.53;;;13.08;100.00
11487;BME280;10510;47.942;9.442;2022-08-16T02:53:08;94100.31;;;13.07;100.00
11487;BME280;10510;47.942;9.442;2022-08-16T02:55:08;94108.00;;;13.02;100.00
11487;BME280;10510;47.942;9.442;2022-08-16T02:57:08;94105.47;;;12.88;100.00
11487;BME280;10510;47.942;9.442;2022-08-16T02:59:09;94102.09;;;12.75;100.00
11487;BME280;10510;47.942;9.442;2022-08-16T03:01:12;94103.94;;;12.67;100.00
11487;BME280;10510;47.942;9.442;2022-08-16T03:03:13;94097.09;;;12.66;100.00
11487;BME280;10510;47.942;9.442;2022-08-16T03:05:14;94099.72;;;12.66;100.00
11487;BME280;10510;47.942;9.442;2022-08-16T03:07:15;94096.91;;;12.61;100.00
11487;BME280;10510;47.942;9.442;2022-08-16T03:09:15;94094.09;;;12.63;100.00
11487;BME280;10510;47.942;9.442;2022-08-16T03:11:17;94090.66;;;12.62;100.00
11487;BME280;10510;47.942;9.442;2022-08-16T03:13:31;94089.03;;;12.61;100.00
11487;BME280;10510;47.942;9.442;2022-08-16T03:15:31;94093.47;;;12.61;100.00
11487;BME280;10510;47.942;9.442;2022-08-16T03:17:31;94093.72;;;12.59;100.00
11487;BME280;10510;47.942;9.442;2022-08-16T03:19:33;94087.63;;;12.59;100.00
11487;BME280;10510;47.942;9.442;2022-08-16T03:21:34;94092.06;;;12.58;100.00
11487;BME280;10510;47.942;9.442;2022-08-16T03:23:34;94099.56;;;12.55;100.00
11487;BME280;10510;47.942;9.442;2022-08-16T03:25:35;94092.91;;;12.52;100.00
11487;BME280;10510;47.942;9.442;2022-08-16T03:27:37;94085.66;;;12.54;100.00
11487;BME280;10510;47.942;9.442;2022-08-16T03:29:38;94088.06;;;12.56;100.00
11487;BME280;10510;47.942;9.442;2022-08-16T03:31:38;94094.13;;;12.56;100.00
11487;BME280;10510;47.942;9.442;2022-08-16T03:33:39;94091.50;;;12.56;100.00
11487;BME280;10510;47.942;9.442;2022-08-16T03:35:40;94085.66;;;12.54;100.00
11487;BME280;10510;47.942;9.442;2022-08-16T03:37:40;94094.13;;;12.49;100.00
11487;BME280;10510;47.942;9.442;2022-08-16T03:39:43;94090.75;;;12.42;100.00
11487;BME280;10510;47.942;9.442;2022-08-16T03:41:43;94088.34;;;12.34;100.00
11487;BME280;10510;47.942;9.442;2022-08-16T03:43:43;94079.50;;;12.28;100.00
11487;BME280;10510;47.942;9.442;2022-08-16T03:45:44;94082.13;;;12.28;100.00
11487;BME280;10510;47.942;9.442;2022-08-16T03:47:45;94081.13;;;12.23;100.00
11487;BME280;10510;47.942;9.442;2022-08-16T03:49:46;94087.16;;;12.23;100.00
11487;BME280;10510;47.942;9.442;2022-08-16T03:51:47;94085.38;;;12.24;100.00
11487;BME280;10510;47.942;9.442;2022-08-16T03:53:47;94077.28;;;12.25;100.00
11487;BME280;10510;47.942;9.442;2022-08-16T03:55:48;94085.16;;;12.25;100.00
11487;BME280;10510;47.942;9.442;2022-08-16T03:57:48;94088.00;;;12.24;100.00
11487;BME280;10510;47.942;9.442;2022-08-16T03:59:48;94082.94;;;12.22;100.00
11487;BME280;10510;47.942;9.442;2022-08-16T04:01:49;94078.34;;;12.18;100.00
11487;BME280;10510;47.942;9.442;2022-08-16T04:03:50;94083.38;;;12.13;100.00
11487;BME280;10510;47.942;9.442;2022-08-16T04:05:50;94078.75;;;12.08;100.00
11487;BME280;10510;47.942;9.442;2022-08-16T04:07:50;94083.81;;;12.03;100.00
11487;BME280;10510;47.942;9.442;2022-08-16T04:09:51;94081.41;;;11.95;100.00
11487;BME280;10510;47.942;9.442;2022-08-16T04:11:51;94087.88;;;11.92;100.00
11487;BME280;10510;47.942;9.442;2022-08-16T04:13:51;94082.25;;;11.89;100.00
11487;BME280;10510;47.942;9.442;2022-08-16T04:15:52;94083.44;;;11.86;100.00
11487;BME280;10510;47.942;9.442;2022-08-16T04:17:52;94085.03;;;11.87;100.00
11487;BME280;10510;47.942;9.442;2022-08-16T04:19:54;94088.66;;;11.93;100.00
11487;BME280;10510;47.942;9.442;2022-08-16T04:21:55;94083.00;;;11.96;100.00
11487;BME280;10510;47.942;9.442;2022-08-16T04:23:55;94089.44;;;12.00;100.00
11487;BME280;10510;47.942;9.442;2022-08-16T04:25:55;94084.81;;;12.02;100.00
11487;BME280;10510;47.942;9.442;2022-08-16T04:27:56;94087.25;;;12.03;100.00
11487;BME280;10510;47.942;9.442;2022-08-16T04:29:56;94088.03;;;12.04;100.00
11487;BME280;10510;47.942;9.442;2022-08-16T04:31:56;94090.28;;;12.00;100.00
11487;BME280;10510;47.942;9.442;2022-08-16T04:33:57;94095.28;;;12.02;100.00
11487;BME280;10510;47.942;9.442;2022-08-16T04:35:58;94099.53;;;12.03;100.00
11487;BME280;10510;47.942;9.442;2022-08-16T04:37:58;94098.28;;;12.05;100.00
11487;BME280;10510;47.942;9.442;2022-08-16T04:39:59;94091.84;;;12.08;100.00
11487;BME280;10510;47.942;9.442;2022-08-16T04:41:59;94096.50;;;12.06;100.00
11487;BME280;10510;47.942;9.442;2022-08-16T04:44:00;94104.97;;;12.01;100.00
11487;BME280;10510;47.942;9.442;2022-08-16T04:46:00;94108.00;;;11.98;100.00
11487;BME280;10510;47.942;9.442;2022-08-16T04:48:01;94099.13;;;11.99;100.00
11487;BME280;10510;47.942;9.442;2022-08-16T04:52:07;94110.41;;;12.07;100.00
11487;BME280;10510;47.942;9.442;2022-08-16T04:54:08;94111.81;;;12.09;100.00
11487;BME280;10510;47.942;9.442;2022-08-16T04:56:09;94115.63;;;12.13;100.00
11487;BME280;10510;47.942;9.442;2022-08-16T04:58:09;94115.59;;;12.20;100.00
11487;BME280;10510;47.942;9.442;2022-08-16T05:00:13;94115.97;;;12.23;100.00
11487;BME280;10510;47.942;9.442;2022-08-16T05:02:14;94115.19;;;12.30;100.00
11487;BME280;10510;47.942;9.442;2022-08-16T05:04:14;94114.97;;;12.31;100.00
11487;BME280;10510;47.942;9.442;2022-08-16T05:06:14;94114.34;;;12.36;100.00
11487;BME280;10510;47.942;9.442;2022-08-16T05:08:15;94113.72;;;12.40;100.00
11487;BME280;10510;47.942;9.442;2022-08-16T05:10:15;94120.97;;;12.45;100.00
11487;BME280;10510;47.942;9.442;2022-08-16T05:12:15;94113.31;;;12.50;100.00
11487;BME280;10510;47.942;9.442;2022-08-16T05:14:15;94112.28;;;12.51;100.00
11487;BME280;10510;47.942;9.442;2022-08-16T05:16:21;94124.59;;;12.50;100.00
11487;BME280;10510;47.942;9.442;2022-08-16T05:18:22;94122.97;;;12.56;100.00
11487;BME280;10510;47.942;9.442;2022-08-16T05:20:22;94125.97;;;12.60;100.00
11487;BME280;10510;47.942;9.442;2022-08-16T05:22:23;94124.91;;;12.67;100.00
11487;BME280;10510;47.942;9.442;2022-08-16T05:24:24;94123.28;;;12.73;100.00
11487;BME280;10510;47.942;9.442;2022-08-16T05:26:29;94126.47;;;12.82;100.00
11487;BME280;10510;47.942;9.442;2022-08-16T05:28:29;94119.38;;;12.89;100.00
11487;BME280;10510;47.942;9.442;2022-08-16T05:30:29;94121.53;;;12.99;100.00
11487;BME280;10510;47.942;9.442;2022-08-16T05:32:30;94120.06;;;13.09;100.00
11487;BME280;10510;47.942;9.442;2022-08-16T05:34:30;94113.56;;;13.18;100.00
11487;BME280;10510;47.942;9.442;2022-08-16T05:36:31;94118.38;;;13.28;100.00
11487;BME280;10510;47.942;9.442;2022-08-16T05:38:32;94123.97;;;13.38;100.00
11487;BME280;10510;47.942;9.442;2022-08-16T05:40:32;94123.06;;;13.51;100.00
11487;BME280;10510;47.942;9.442;2022-08-16T05:42:32;94122.94;;;13.64;100.00
11487;BME280;10510;47.942;9.442;2022-08-16T05:44:33;94126.88;;;13.80;100.00
11487;BME280;10510;47.942;9.442;2022-08-16T05:46:33;94127.31;;;13.96;100.00
11487;BME280;10510;47.942;9.442;2022-08-16T05:48:33;94127.00;;;14.11;100.00
11487;BME280;10510;47.942;9.442;2022-08-16T05:50:34;94121.19;;;14.27;100.00
11487;BME280;10510;47.942;9.442;2022-08-16T05:52:34;94122.06;;;14.39;100.00
11487;BME280;10510;47.942;9.442;2022-08-16T05:54:34;94123.53;;;14.53;100.00
11487;BME280;10510;47.942;9.442;2022-08-16T05:56:35;94119.75;;;14.68;100.00
11487;BME280;10510;47.942;9.442;2022-08-16T05:58:36;94115.34;;;14.80;100.00
11487;BME280;10510;47.942;9.442;2022-08-16T06:00:36;94114.59;;;14.91;100.00
11487;BME280;10510;47.942;9.442;2022-08-16T06:02:36;94113.81;;;15.03;100.00
11487;BME280;10510;47.942;9.442;2022-08-16T06:04:37;94115.03;;;15.18;100.00
11487;BME280;10510;47.942;9.442;2022-08-16T06:06:37;94114.22;;;15.60;100.00
11487;BME280;10510;47.942;9.442;2022-08-16T06:08:37;94114.94;;;15.79;100.00
11487;BME280;10510;47.942;9.442;2022-08-16T06:10:38;94117.47;;;16.56;100.00
11487;BME280;10510;47.942;9.442;2022-08-16T06:12:39;94115.09;;;17.12;100.00
11487;BME280;10510;47.942;9.442;2022-08-16T06:14:39;94111.44;;;17.58;100.00
11487;BME280;10510;47.942;9.442;2022-08-16T06:16:40;94112.31;;;17.47;100.00
11487;BME280;10510;47.942;9.442;2022-08-16T06:18:40;94106.56;;;17.50;100.00
11487;BME280;10510;47.942;9.442;2022-08-16T06:20:44;94114.09;;;17.75;100.00
11487;BME280;10510;47.942;9.442;2022-08-16T06:22:44;94109.63;;;18.09;100.00
11487;BME280;10510;47.942;9.442;2022-08-16T06:24:44;94117.31;;;18.11;100.00
11487;BME280;10510;47.942;9.442;2022-08-16T06:26:45;94111.72;;;17.90;100.00
11487;BME280;10510;47.942;9.442;2022-08-16T06:28:45;94106.66;;;17.72;100.00
11487;BME280;10510;47.942;9.442;2022-08-16T06:30:46;94118.72;;;17.80;100.00
11487;BME280;10510;47.942;9.442;2022-08-16T06:32:46;94116.38;;;17.83;100.00
11487;BME280;10510;47.942;9.442;2022-08-16T06:34:47;94114.22;;;17.80;100.00
11487;BME280;10510;47.942;9.442;2022-08-16T06:36:48;94113.81;;;17.88;100.00
11487;BME280;10510;47.942;9.442;2022-08-16T06:38:49;94121.63;;;18.17;100.00
11487;BME280;10510;47.942;9.442;2022-08-16T06:40:50;94126.56;;;18.47;100.00
11487;BME280;10510;47.942;9.442;2022-08-16T06:42:50;94124.44;;;18.49;100.00
11487;BME280;10510;47.942;9.442;2022-08-16T06:44:51;94124.41;;;18.66;100.00
11487;BME280;10510;47.942;9.442;2022-08-16T06:46:51;94121.50;;;18.68;100.00
11487;BME280;10510;47.942;9.442;2022-08-16T06:48:52;94122.56;;;18.67;100.00
11487;BME280;10510;47.942;9.442;2022-08-16T06:50:52;94123.69;;;18.71;100.00
11487;BME280;10510;47.942;9.442;2022-08-16T06:52:53;94125.44;;;18.82;100.00
11487;BME280;10510;47.942;9.442;2022-08-16T06:54:53;94115.03;;;18.97;100.00
11487;BME280;10510;47.942;9.442;2022-08-16T06:56:53;94115.59;;;19.26;100.00
11487;BME280;10510;47.942;9.442;2022-08-16T06:58:54;94126.66;;;19.45;100.00
11487;BME280;10510;47.942;9.442;2022-08-16T07:00:54;94114.59;;;19.60;100.00
11487;BME280;10510;47.942;9.442;2022-08-16T07:02:54;94110.47;;;19.69;100.00
11487;BME280;10510;47.942;9.442;2022-08-16T07:04:55;94120.06;;;19.75;100.00
11487;BME280;10510;47.942;9.442;2022-08-16T07:06:56;94114.03;;;19.85;100.00
11487;BME280;10510;47.942;9.442;2022-08-16T07:08:56;94122.31;;;19.93;100.00
11487;BME280;10510;47.942;9.442;2022-08-16T07:10:56;94121.00;;;19.96;100.00
11487;BME280;10510;47.942;9.442;2022-08-16T07:12:57;94119.44;;;19.95;100.00
11487;BME280;10510;47.942;9.442;2022-08-16T07:14:58;94125.00;;;19.99;100.00
11487;BME280;10510;47.942;9.442;2022-08-16T07:16:59;94124.00;;;20.05;100.00
11487;BME280;10510;47.942;9.442;2022-08-16T07:18:59;94126.19;;;20.13;100.00
11487;BME280;10510;47.942;9.442;2022-08-16T07:21:00;94123.06;;;20.21;100.00
11487;BME280;10510;47.942;9.442;2022-08-16T07:23:00;94126.56;;;20.32;100.00
11487;BME280;10510;47.942;9.442;2022-08-16T07:25:01;94131.13;;;20.36;100.00
11487;BME280;10510;47.942;9.442;2022-08-16T07:27:03;94125.72;;;20.63;100.00
11487;BME280;10510;47.942;9.442;2022-08-16T07:29:03;94134.63;;;21.00;100.00
11487;BME280;10510;47.942;9.442;2022-08-16T07:31:04;94126.78;;;21.36;100.00
11487;BME280;10510;47.942;9.442;2022-08-16T07:33:04;94136.44;;;21.77;100.00
11487;BME280;10510;47.942;9.442;2022-08-16T07:35:06;94127.97;;;22.21;100.00
11487;BME280;10510;47.942;9.442;2022-08-16T07:37:09;94136.97;;;22.56;100.00
11487;BME280;10510;47.942;9.442;2022-08-16T07:39:11;94119.56;;;22.95;100.00
11487;BME280;10510;47.942;9.442;2022-08-16T07:41:11;94127.97;;;23.22;100.00
11487;BME280;10510;47.942;9.442;2022-08-16T07:43:11;94124.94;;;23.44;100.00
11487;BME280;10510;47.942;9.442;2022-08-16T07:45:12;94125.28;;;23.77;100.00
11487;BME280;10510;47.942;9.442;2022-08-16T07:47:12;94125.25;;;24.11;100.00
11487;BME280;10510;47.942;9.442;2022-08-16T07:49:12;94129.50;;;24.46;100.00
11487;BME280;10510;47.942;9.442;2022-08-16T07:51:13;94129.13;;;24.82;100.00
11487;BME280;10510;47.942;9.442;2022-08-16T07:53:13;94128.69;;;24.99;100.00
11487;BME280;10510;47.942;9.442;2022-08-16T07:55:15;94126.38;;;24.92;100.00
11487;BME280;10510;47.942;9.442;2022-08-16T07:57:15;94126.75;;;25.05;100.00
11487;BME280;10510;47.942;9.442;2022-08-16T07:59:15;94130.28;;;25.24;100.00
11487;BME280;10510;47.942;9.442;2022-08-16T08:01:16;94132.34;;;25.51;100.00
11487;BME280;10510;47.942;9.442;2022-08-16T08:03:16;94130.06;;;25.82;100.00
11487;BME280;10510;47.942;9.442;2022-08-16T08:05:16;94131.72;;;26.11;100.00
11487;BME280;10510;47.942;9.442;2022-08-16T08:07:17;94131.22;;;26.42;100.00
11487;BME280;10510;47.942;9.442;2022-08-16T08:09:17;94129.59;;;26.60;100.00
11487;BME280;10510;47.942;9.442;2022-08-16T08:11:19;94126.34;;;26.63;100.00
11487;BME280;10510;47.942;9.442;2022-08-16T08:13:21;94129.44;;;26.84;100.00
11487;BME280;10510;47.942;9.442;2022-08-16T08:15:21;94135.59;;;26.98;100.00
11487;BME280;10510;47.942;9.442;2022-08-16T08:17:24;94141.06;;;27.21;100.00
11487;BME280;10510;47.942;9.442;2022-08-16T08:19:24;94141.97;;;27.30;100.00
11487;BME280;10510;47.942;9.442;2022-08-16T08:21:25;94137.75;;;27.37;100.00
11487;BME280;10510;47.942;9.442;2022-08-16T08:23:25;94133.28;;;27.47;100.00
11487;BME280;10510;47.942;9.442;2022-08-16T08:25:30;94135.50;;;27.67;100.00
11487;BME280;10510;47.942;9.442;2022-08-16T08:27:30;94127.78;;;28.02;100.00
11487;BME280;10510;47.942;9.442;2022-08-16T08:29:31;94126.72;;;28.12;100.00
11487;BME280;10510;47.942;9.442;2022-08-16T08:31:32;94131.69;;;27.96;100.00
11487;BME280;10510;47.942;9.442;2022-08-16T08:33:36;94128.63;;;27.89;100.00
11487;BME280;10510;47.942;9.442;2022-08-16T08:35:37;94129.84;;;28.05;100.00
11487;BME280;10510;47.942;9.442;2022-08-16T08:37:38;94129.41;;;28.12;100.00
11487;BME280;10510;47.942;9.442;2022-08-16T08:39:39;94131.69;;;28.18;100.00
11487;BME280;10510;47.942;9.442;2022-08-16T08:41:40;94131.81;;;28.36;100.00
11487;BME280;10510;47.942;9.442;2022-08-16T08:43:40;94129.47;;;28.65;100.00
11487;BME280;10510;47.942;9.442;2022-08-16T08:45:42;94131.66;;;28.63;100.00
11487;BME280;10510;47.942;9.442;2022-08-16T08:47:43;94133.22;;;28.64;100.00
11487;BME280;10510;47.942;9.442;2022-08-16T08:49:46;94125.38;;;28.68;100.00
11487;BME280;10510;47.942;9.442;2022-08-16T08:51:46;94135.47;;;28.62;100.00
11487;BME280;10510;47.942;9.442;2022-08-16T08:53:46;94125.94;;;28.56;100.00
11487;BME280;10510;47.942;9.442;2022-08-16T08:55:47;94124.28;;;28.46;100.00
11487;BME280;10510;47.942;9.442;2022-08-16T08:57:49;94125.44;;;27.50;100.00
11487;BME280;10510;47.942;9.442;2022-08-16T08:59:50;94133.50;;;27.50;100.00
11487;BME280;10510;47.942;9.442;2022-08-16T09:01:51;94133.09;;;28.16;100.00
11487;BME280;10510;47.942;9.442;2022-08-16T09:03:51;94136.31;;;27.68;100.00
11487;BME280;10510;47.942;9.442;2022-08-16T09:05:51;94139.47;;;27.70;100.00
11487;BME280;10510;47.942;9.442;2022-08-16T09:07:52;94135.91;;;28.11;100.00
11487;BME280;10510;47.942;9.442;2022-08-16T09:09:53;94140.25;;;28.43;100.00
11487;BME280;10510;47.942;9.442;2022-08-16T09:11:55;94136.63;;;28.79;100.00
11487;BME280;10510;47.942;9.442;2022-08-16T09:13:56;94124.78;;;28.88;100.00
11487;BME280;10510;47.942;9.442;2022-08-16T09:15:56;94132.22;;;29.23;100.00
11487;BME280;10510;47.942;9.442;2022-08-16T09:17:56;94133.72;;;29.55;100.00
11487;BME280;10510;47.942;9.442;2022-08-16T09:19:57;94139.00;;;29.77;100.00
11487;BME280;10510;47.942;9.442;2022-08-16T09:21:57;94127.13;;;29.70;100.00
11487;BME280;10510;47.942;9.442;2022-08-16T09:23:58;94131.72;;;29.86;100.00
11487;BME280;10510;47.942;9.442;2022-08-16T09:25:58;94125.06;;;30.10;100.00
11487;BME280;10510;47.942;9.442;2022-08-16T09:27:59;94140.44;;;30.18;100.00
11487;BME280;10510;47.942;9.442;2022-08-16T09:29:59;94135.34;;;30.43;100.00
11487;BME280;10510;47.942;9.442;2022-08-16T09:32:00;94131.09;;;30.33;100.00
11487;BME280;10510;47.942;9.442;2022-08-16T09:34:00;94127.09;;;30.48;100.00
11487;BME280;10510;47.942;9.442;2022-08-16T09:36:02;94129.41;;;30.67;100.00
11487;BME280;10510;47.942;9.442;2022-08-16T09:38:03;94134.81;;;30.67;100.00
11487;BME280;10510;47.942;9.442;2022-08-16T09:40:07;94129.06;;;30.77;100.00
11487;BME280;10510;47.942;9.442;2022-08-16T09:42:09;94128.25;;;30.76;100.00
11487;BME280;10510;47.942;9.442;2022-08-16T09:44:09;94129.19;;;30.98;100.00
11487;BME280;10510;47.942;9.442;2022-08-16T09:46:10;94131.13;;;30.89;100.00
11487;BME280;10510;47.942;9.442;2022-08-16T09:48:11;94138.94;;;30.64;100.00
11487;BME280;10510;47.942;9.442;2022-08-16T09:50:13;94139.16;;;30.42;100.00
11487;BME280;10510;47.942;9.442;2022-08-16T09:52:13;94140.88;;;30.46;100.00
11487;BME280;10510;47.942;9.442;2022-08-16T09:54:13;94138.91;;;30.73;100.00
11487;BME280;10510;47.942;9.442;2022-08-16T09:56:28;94124.53;;;30.60;100.00
11487;BME280;10510;47.942;9.442;2022-08-16T09:58:30;94128.47;;;30.63;100.00
11487;BME280;10510;47.942;9.442;2022-08-16T10:00:30;94119.25;;;30.72;100.00
11487;BME280;10510;47.942;9.442;2022-08-16T10:02:30;94120.69;;;30.61;100.00
11487;BME280;10510;47.942;9.442;2022-08-16T10:04:31;94121.38;;;30.41;100.00
11487;BME280;10510;47.942;9.442;2022-08-16T10:06:31;94121.88;;;29.99;100.00
11487;BME280;10510;47.942;9.442;2022-08-16T10:08:32;94119.72;;;28.78;100.00
11487;BME280;10510;47.942;9.442;2022-08-16T10:10:33;94115.44;;;28.46;100.00
11487;BME280;10510;47.942;9.442;2022-08-16T10:12:34;94120.66;;;27.97;100.00
11487;BME280;10510;47.942;9.442;2022-08-16T10:14:53;94119.13;;;28.59;100.00
11487;BME280;10510;47.942;9.442;2022-08-16T10:16:54;94115.16;;;28.87;100.00
11487;BME280;10510;47.942;9.442;2022-08-16T10:18:54;94120.28;;;28.97;100.00
11487;BME280;10510;47.942;9.442;2022-08-16T10:20:55;94115.69;;;28.98;100.00
11487;BME280;10510;47.942;9.442;2022-08-16T10:22:57;94125.38;;;29.08;100.00
11487;BME280;10510;47.942;9.442;2022-08-16T10:25:00;94123.09;;;28.92;100.00
11487;BME280;10510;47.942;9.442;2022-08-16T10:27:00;94121.13;;;29.07;100.00
11487;BME280;10510;47.942;9.442;2022-08-16T10:29:02;94126.72;;;29.28;100.00
11487;BME280;10510;47.942;9.442;2022-08-16T10:31:04;94136.97;;;29.17;100.00
11487;BME280;10510;47.942;9.442;2022-08-16T10:33:04;94133.31;;;29.13;100.00
11487;BME280;10510;47.942;9.442;2022-08-16T10:35:05;94132.19;;;28.43;100.00
11487;BME280;10510;47.942;9.442;2022-08-16T10:37:05;94134.28;;;28.32;100.00